sensor_id;sensor_type;location;lat;lon;timestamp;P1;durP1;ratioP1;P2;durP2;ratioP2
62332;SDS011;48624;49.812;8.562;2023-04-23T00:00:07;507.23;;;486.80;;
62332;SDS011;48624;49.812;8.562;2023-04-23T00:02:36;593.00;;;566.72;;
62332;SDS011;48624;49.812;8.562;2023-04-23T00:05:03;528.70;;;507.10;;
62332;SDS011;48624;49.812;8.562;2023-04-23T00:07:31;527.30;;;505.48;;
62332;SDS011;48624;49.812;8.562;2023-04-23T00:09:57;549.13;;;525.83;;
62332;SDS011;48624;49.812;8.562;2023-04-23T00:12:24;538.08;;;515.40;;
62332;SDS011;48624;49.812;8.562;2023-04-23T00:14:50;551.95;;;527.97;;
62332;SDS011;48624;49.812;8.562;2023-04-23T00:17:15;525.72;;;503.63;;
62332;SDS011;48624;49.812;8.562;2023-04-23T00:19:41;532.50;;;510.77;;
62332;SDS011;48624;49.812;8.562;2023-04-23T00:22:06;527.88;;;505.98;;
62332;SDS011;48624;49.812;8.562;2023-04-23T00:24:32;545.38;;;522.45;;
62332;SDS011;48624;49.812;8.562;2023-04-23T00:27:00;569.63;;;545.28;;
62332;SDS011;48624;49.812;8.562;2023-04-23T00:29:25;582.47;;;556.58;;
62332;SDS011;48624;49.812;8.562;2023-04-23T00:31:50;553.88;;;529.97;;
62332;SDS011;48624;49.812;8.562;2023-04-23T00:34:16;554.83;;;530.38;;
62332;SDS011;48624;49.812;8.562;2023-04-23T00:36:41;532.75;;;510.45;;
62332;SDS011;48624;49.812;8.562;2023-04-23T00:39:07;526.90;;;505.10;;
62332;SDS011;48624;49.812;8.562;2023-04-23T00:41:32;550.50;;;526.95;;
62332;SDS011;48624;49.812;8.562;2023-04-23T00:43:58;564.17;;;539.30;;
62332;SDS011;48624;49.812;8.562;2023-04-23T00:46:24;512.70;;;491.38;;
62332;SDS011;48624;49.812;8.562;2023-04-23T00:48:51;519.47;;;498.05;;
62332;SDS011;48624;49.812;8.562;2023-04-23T00:51:17;520.25;;;498.98;;
62332;SDS011;48624;49.812;8.562;2023-04-23T00:53:42;548.20;;;524.92;;
62332;SDS011;48624;49.812;8.562;2023-04-23T00:56:07;547.15;;;524.30;;
62332;SDS011;48624;49.812;8.562;2023-04-23T00:58:33;555.22;;;531.42;;
62332;SDS011;48624;49.812;8.562;2023-04-23T01:00:59;581.30;;;554.45;;
62332;SDS011;48624;49.812;8.562;2023-04-23T01:03:26;511.10;;;490.35;;
62332;SDS011;48624;49.812;8.562;2023-04-23T01:05:53;562.17;;;538.17;;
62332;SDS011;48624;49.812;8.562;2023-04-23T01:08:19;555.08;;;531.03;;
62332;SDS011;48624;49.812;8.562;2023-04-23T01:10:47;541.78;;;519.30;;
62332;SDS011;48624;49.812;8.562;2023-04-23T01:13:13;515.28;;;493.42;;
62332;SDS011;48624;49.812;8.562;2023-04-23T01:15:39;536.45;;;514.05;;
62332;SDS011;48624;49.812;8.562;2023-04-23T01:18:04;532.83;;;510.85;;
62332;SDS011;48624;49.812;8.562;2023-04-23T01:20:33;520.25;;;498.95;;
62332;SDS011;48624;49.812;8.562;2023-04-23T01:22:59;526.53;;;504.58;;
62332;SDS011;48624;49.812;8.562;2023-04-23T01:25:26;526.20;;;504.80;;
62332;SDS011;48624;49.812;8.562;2023-04-23T01:27:51;532.67;;;510.52;;
62332;SDS011;48624;49.812;8.562;2023-04-23T01:30:17;540.05;;;516.25;;
62332;SDS011;48624;49.812;8.562;2023-04-23T01:32:43;542.97;;;520.08;;
62332;SDS011;48624;49.812;8.562;2023-04-23T01:35:09;574.75;;;549.22;;
62332;SDS011;48624;49.812;8.562;2023-04-23T01:37:37;517.38;;;496.25;;
62332;SDS011;48624;49.812;8.562;2023-04-23T01:40:03;610.72;;;581.08;;
62332;SDS011;48624;49.812;8.562;2023-04-23T01:42:30;532.05;;;509.30;;
62332;SDS011;48624;49.812;8.562;2023-04-23T01:44:56;538.92;;;516.65;;
62332;SDS011;48624;49.812;8.562;2023-04-23T01:47:21;538.03;;;514.35;;
62332;SDS011;48624;49.812;8.562;2023-04-23T01:49:47;510.42;;;489.10;;
62332;SDS011;48624;49.812;8.562;2023-04-23T01:52:12;600.08;;;571.53;;
62332;SDS011;48624;49.812;8.562;2023-04-23T01:54:38;521.72;;;499.65;;
62332;SDS011;48624;49.812;8.562;2023-04-23T01:57:03;504.35;;;483.30;;
62332;SDS011;48624;49.812;8.562;2023-04-23T01:59:28;501.77;;;481.50;;
62332;SDS011;48624;49.812;8.562;2023-04-23T02:01:54;505.13;;;484.55;;
62332;SDS011;48624;49.812;8.562;2023-04-23T02:04:19;494.45;;;474.42;;
62332;SDS011;48624;49.812;8.562;2023-04-23T02:06:46;489.65;;;470.02;;
62332;SDS011;48624;49.812;8.562;2023-04-23T02:09:14;497.83;;;477.63;;
62332;SDS011;48624;49.812;8.562;2023-04-23T02:11:39;492.52;;;472.63;;
62332;SDS011;48624;49.812;8.562;2023-04-23T02:14:05;489.60;;;469.67;;
62332;SDS011;48624;49.812;8.562;2023-04-23T02:16:31;487.95;;;468.13;;
62332;SDS011;48624;49.812;8.562;2023-04-23T02:18:56;489.98;;;469.95;;
62332;SDS011;48624;49.812;8.562;2023-04-23T02:21:22;512.92;;;491.42;;
62332;SDS011;48624;49.812;8.562;2023-04-23T02:23:48;551.17;;;526.75;;
62332;SDS011;48624;49.812;8.562;2023-04-23T02:26:15;493.17;;;472.95;;
62332;SDS011;48624;49.812;8.562;2023-04-23T02:28:40;463.17;;;444.60;;
62332;SDS011;48624;49.812;8.562;2023-04-23T02:31:06;472.15;;;453.05;;
62332;SDS011;48624;49.812;8.562;2023-04-23T02:33:31;525.63;;;503.20;;
62332;SDS011;48624;49.812;8.562;2023-04-23T02:35:56;505.23;;;484.60;;
62332;SDS011;48624;49.812;8.562;2023-04-23T02:38:21;507.08;;;486.05;;
62332;SDS011;48624;49.812;8.562;2023-04-23T02:40:47;528.15;;;505.55;;
62332;SDS011;48624;49.812;8.562;2023-04-23T02:43:12;485.83;;;466.13;;
62332;SDS011;48624;49.812;8.562;2023-04-23T02:45:37;462.00;;;443.30;;
62332;SDS011;48624;49.812;8.562;2023-04-23T02:48:03;488.17;;;467.95;;
62332;SDS011;48624;49.812;8.562;2023-04-23T02:50:28;479.33;;;459.77;;
62332;SDS011;48624;49.812;8.562;2023-04-23T02:52:55;491.17;;;471.05;;
62332;SDS011;48624;49.812;8.562;2023-04-23T02:55:20;508.13;;;486.90;;
62332;SDS011;48624;49.812;8.562;2023-04-23T02:57:46;492.55;;;472.42;;
62332;SDS011;48624;49.812;8.562;2023-04-23T03:00:11;471.08;;;451.88;;
62332;SDS011;48624;49.812;8.562;2023-04-23T03:02:38;492.35;;;471.85;;
62332;SDS011;48624;49.812;8.562;2023-04-23T03:05:04;471.63;;;452.42;;
62332;SDS011;48624;49.812;8.562;2023-04-23T03:07:30;479.38;;;459.83;;
62332;SDS011;48624;49.812;8.562;2023-04-23T03:09:55;481.73;;;462.08;;
62332;SDS011;48624;49.812;8.562;2023-04-23T03:12:21;473.77;;;454.65;;
62332;SDS011;48624;49.812;8.562;2023-04-23T03:14:46;478.83;;;459.75;;
62332;SDS011;48624;49.812;8.562;2023-04-23T03:17:11;477.83;;;458.77;;
62332;SDS011;48624;49.812;8.562;2023-04-23T03:19:37;485.67;;;465.52;;
62332;SDS011;48624;49.812;8.562;2023-04-23T03:22:02;494.48;;;473.25;;
62332;SDS011;48624;49.812;8.562;2023-04-23T03:24:29;481.45;;;461.88;;
62332;SDS011;48624;49.812;8.562;2023-04-23T03:26:56;462.65;;;443.73;;
62332;SDS011;48624;49.812;8.562;2023-04-23T03:29:22;510.60;;;488.95;;
62332;SDS011;48624;49.812;8.562;2023-04-23T03:31:47;489.13;;;468.92;;
62332;SDS011;48624;49.812;8.562;2023-04-23T03:34:12;476.65;;;456.60;;
62332;SDS011;48624;49.812;8.562;2023-04-23T03:36:38;462.92;;;444.35;;
62332;SDS011;48624;49.812;8.562;2023-04-23T03:39:03;468.48;;;448.98;;
62332;SDS011;48624;49.812;8.562;2023-04-23T03:41:29;479.25;;;459.10;;
62332;SDS011;48624;49.812;8.562;2023-04-23T03:43:54;455.73;;;436.92;;
62332;SDS011;48624;49.812;8.562;2023-04-23T03:46:19;481.50;;;461.25;;
62332;SDS011;48624;49.812;8.562;2023-04-23T03:48:45;467.35;;;448.63;;
62332;SDS011;48624;49.812;8.562;2023-04-23T03:51:10;485.67;;;465.67;;
62332;SDS011;48624;49.812;8.562;2023-04-23T03:53:35;453.08;;;435.10;;
62332;SDS011;48624;49.812;8.562;2023-04-23T03:56:01;469.48;;;449.77;;
62332;SDS011;48624;49.812;8.562;2023-04-23T03:58:26;473.35;;;453.77;;
62332;SDS011;48624;49.812;8.562;2023-04-23T04:00:51;472.70;;;453.17;;
62332;SDS011;48624;49.812;8.562;2023-04-23T04:03:17;492.58;;;471.65;;
62332;SDS011;48624;49.812;8.562;2023-04-23T04:05:42;464.58;;;445.52;;
62332;SDS011;48624;49.812;8.562;2023-04-23T04:08:08;475.50;;;455.35;;
62332;SDS011;48624;49.812;8.562;2023-04-23T04:10:33;482.63;;;462.42;;
62332;SDS011;48624;49.812;8.562;2023-04-23T04:13:00;457.23;;;438.17;;
62332;SDS011;48624;49.812;8.562;2023-04-23T04:15:26;477.27;;;457.27;;
62332;SDS011;48624;49.812;8.562;2023-04-23T04:17:51;463.35;;;444.17;;
62332;SDS011;48624;49.812;8.562;2023-04-23T04:20:16;476.83;;;456.45;;
62332;SDS011;48624;49.812;8.562;2023-04-23T04:22:42;490.88;;;470.05;;
62332;SDS011;48624;49.812;8.562;2023-04-23T04:25:07;468.58;;;449.08;;
62332;SDS011;48624;49.812;8.562;2023-04-23T04:27:33;506.17;;;485.10;;
62332;SDS011;48624;49.812;8.562;2023-04-23T04:29:59;468.67;;;448.73;;
62332;SDS011;48624;49.812;8.562;2023-04-23T04:32:25;484.08;;;463.45;;
62332;SDS011;48624;49.812;8.562;2023-04-23T04:34:51;451.95;;;433.35;;
62332;SDS011;48624;49.812;8.562;2023-04-23T04:37:17;484.60;;;464.27;;
62332;SDS011;48624;49.812;8.562;2023-04-23T04:39:44;469.23;;;449.58;;
62332;SDS011;48624;49.812;8.562;2023-04-23T04:42:10;469.38;;;449.70;;
62332;SDS011;48624;49.812;8.562;2023-04-23T04:44:36;553.67;;;528.13;;
62332;SDS011;48624;49.812;8.562;2023-04-23T04:47:02;484.58;;;463.52;;
62332;SDS011;48624;49.812;8.562;2023-04-23T04:49:27;472.73;;;453.48;;
62332;SDS011;48624;49.812;8.562;2023-04-23T04:51:53;476.27;;;456.63;;
62332;SDS011;48624;49.812;8.562;2023-04-23T04:54:19;466.77;;;447.63;;
62332;SDS011;48624;49.812;8.562;2023-04-23T04:56:45;486.40;;;466.23;;
62332;SDS011;48624;49.812;8.562;2023-04-23T04:59:11;462.77;;;443.55;;
62332;SDS011;48624;49.812;8.562;2023-04-23T05:01:36;544.55;;;518.30;;
62332;SDS011;48624;49.812;8.562;2023-04-23T05:04:02;462.02;;;442.60;;
62332;SDS011;48624;49.812;8.562;2023-04-23T05:06:27;462.23;;;443.58;;
62332;SDS011;48624;49.812;8.562;2023-04-23T05:08:53;444.17;;;426.40;;
62332;SDS011;48624;49.812;8.562;2023-04-23T05:11:18;462.35;;;443.23;;
62332;SDS011;48624;49.812;8.562;2023-04-23T05:13:45;496.52;;;474.98;;
62332;SDS011;48624;49.812;8.562;2023-04-23T05:16:12;495.50;;;474.00;;
62332;SDS011;48624;49.812;8.562;2023-04-23T05:18:38;472.75;;;452.90;;
62332;SDS011;48624;49.812;8.562;2023-04-23T05:21:05;512.15;;;488.85;;
62332;SDS011;48624;49.812;8.562;2023-04-23T05:23:31;458.13;;;438.98;;
62332;SDS011;48624;49.812;8.562;2023-04-23T05:25:56;457.58;;;438.55;;
62332;SDS011;48624;49.812;8.562;2023-04-23T05:28:22;456.67;;;437.45;;
62332;SDS011;48624;49.812;8.562;2023-04-23T05:30:48;440.45;;;422.10;;
62332;SDS011;48624;49.812;8.562;2023-04-23T05:33:14;556.47;;;528.45;;
62332;SDS011;48624;49.812;8.562;2023-04-23T05:35:40;481.40;;;460.60;;
62332;SDS011;48624;49.812;8.562;2023-04-23T05:38:05;534.22;;;509.42;;
62332;SDS011;48624;49.812;8.562;2023-04-23T05:40:31;488.33;;;467.85;;
62332;SDS011;48624;49.812;8.562;2023-04-23T05:42:59;465.80;;;446.60;;
62332;SDS011;48624;49.812;8.562;2023-04-23T05:45:25;477.75;;;457.35;;
62332;SDS011;48624;49.812;8.562;2023-04-23T05:47:51;532.28;;;506.83;;
62332;SDS011;48624;49.812;8.562;2023-04-23T05:50:16;479.13;;;458.65;;
62332;SDS011;48624;49.812;8.562;2023-04-23T05:52:42;571.22;;;539.88;;
62332;SDS011;48624;49.812;8.562;2023-04-23T05:55:08;478.95;;;458.65;;
62332;SDS011;48624;49.812;8.562;2023-04-23T05:57:34;452.35;;;434.17;;
62332;SDS011;48624;49.812;8.562;2023-04-23T06:00:00;472.20;;;452.63;;
62332;SDS011;48624;49.812;8.562;2023-04-23T06:02:26;465.30;;;446.33;;
62332;SDS011;48624;49.812;8.562;2023-04-23T06:04:53;484.08;;;464.30;;
62332;SDS011;48624;49.812;8.562;2023-04-23T06:07:18;469.33;;;450.15;;
62332;SDS011;48624;49.812;8.562;2023-04-23T06:09:43;473.35;;;453.48;;
62332;SDS011;48624;49.812;8.562;2023-04-23T06:12:09;505.67;;;483.90;;
62332;SDS011;48624;49.812;8.562;2023-04-23T06:14:35;535.42;;;510.25;;
62332;SDS011;48624;49.812;8.562;2023-04-23T06:17:00;676.72;;;637.95;;
62332;SDS011;48624;49.812;8.562;2023-04-23T06:19:25;535.85;;;510.85;;
62332;SDS011;48624;49.812;8.562;2023-04-23T06:21:51;517.60;;;494.73;;
62332;SDS011;48624;49.812;8.562;2023-04-23T06:24:17;474.05;;;454.85;;
62332;SDS011;48624;49.812;8.562;2023-04-23T06:26:42;484.13;;;463.77;;
62332;SDS011;48624;49.812;8.562;2023-04-23T06:29:08;503.88;;;481.95;;
62332;SDS011;48624;49.812;8.562;2023-04-23T06:31:33;494.45;;;473.95;;
62332;SDS011;48624;49.812;8.562;2023-04-23T06:33:58;483.55;;;464.08;;
62332;SDS011;48624;49.812;8.562;2023-04-23T06:36:24;474.55;;;454.83;;
62332;SDS011;48624;49.812;8.562;2023-04-23T06:38:50;653.42;;;619.00;;
62332;SDS011;48624;49.812;8.562;2023-04-23T06:41:15;484.90;;;465.27;;
62332;SDS011;48624;49.812;8.562;2023-04-23T06:43:41;475.65;;;456.15;;
62332;SDS011;48624;49.812;8.562;2023-04-23T06:46:06;452.65;;;434.77;;
62332;SDS011;48624;49.812;8.562;2023-04-23T06:48:31;494.13;;;473.73;;
62332;SDS011;48624;49.812;8.562;2023-04-23T06:50:57;465.80;;;447.25;;
62332;SDS011;48624;49.812;8.562;2023-04-23T06:53:23;453.33;;;434.95;;
62332;SDS011;48624;49.812;8.562;2023-04-23T06:55:48;450.90;;;433.23;;
62332;SDS011;48624;49.812;8.562;2023-04-23T06:58:15;500.25;;;479.17;;
62332;SDS011;48624;49.812;8.562;2023-04-23T07:00:40;466.58;;;448.27;;
62332;SDS011;48624;49.812;8.562;2023-04-23T07:03:06;464.65;;;445.95;;
62332;SDS011;48624;49.812;8.562;2023-04-23T07:05:31;472.98;;;453.98;;
62332;SDS011;48624;49.812;8.562;2023-04-23T07:07:56;525.55;;;502.85;;
62332;SDS011;48624;49.812;8.562;2023-04-23T07:10:23;473.30;;;454.35;;
62332;SDS011;48624;49.812;8.562;2023-04-23T07:12:49;503.83;;;482.85;;
62332;SDS011;48624;49.812;8.562;2023-04-23T07:15:14;471.88;;;452.55;;
62332;SDS011;48624;49.812;8.562;2023-04-23T07:17:39;463.35;;;444.38;;
62332;SDS011;48624;49.812;8.562;2023-04-23T07:20:05;464.13;;;445.90;;
62332;SDS011;48624;49.812;8.562;2023-04-23T07:22:32;545.55;;;520.97;;
62332;SDS011;48624;49.812;8.562;2023-04-23T07:24:58;623.75;;;591.85;;
62332;SDS011;48624;49.812;8.562;2023-04-23T07:27:23;586.05;;;558.58;;
62332;SDS011;48624;49.812;8.562;2023-04-23T07:29:49;520.60;;;498.90;;
62332;SDS011;48624;49.812;8.562;2023-04-23T07:32:14;577.25;;;548.40;;
62332;SDS011;48624;49.812;8.562;2023-04-23T07:34:39;667.25;;;630.85;;
62332;SDS011;48624;49.812;8.562;2023-04-23T07:37:05;512.78;;;489.85;;
62332;SDS011;48624;49.812;8.562;2023-04-23T07:39:31;450.75;;;433.42;;
62332;SDS011;48624;49.812;8.562;2023-04-23T07:41:57;434.17;;;417.23;;
62332;SDS011;48624;49.812;8.562;2023-04-23T07:44:22;402.15;;;387.40;;
62332;SDS011;48624;49.812;8.562;2023-04-23T07:46:47;399.20;;;384.58;;
62332;SDS011;48624;49.812;8.562;2023-04-23T07:49:13;357.25;;;344.65;;
62332;SDS011;48624;49.812;8.562;2023-04-23T07:51:38;476.60;;;456.75;;
62332;SDS011;48624;49.812;8.562;2023-04-23T07:54:03;496.23;;;473.15;;
62332;SDS011;48624;49.812;8.562;2023-04-23T07:56:29;368.25;;;355.27;;
62332;SDS011;48624;49.812;8.562;2023-04-23T07:58:56;474.98;;;452.58;;
62332;SDS011;48624;49.812;8.562;2023-04-23T08:01:22;323.73;;;312.25;;
62332;SDS011;48624;49.812;8.562;2023-04-23T08:03:47;355.33;;;342.92;;
62332;SDS011;48624;49.812;8.562;2023-04-23T08:06:13;381.05;;;367.35;;
62332;SDS011;48624;49.812;8.562;2023-04-23T08:08:38;415.20;;;399.85;;
62332;SDS011;48624;49.812;8.562;2023-04-23T08:11:07;358.67;;;346.02;;
62332;SDS011;48624;49.812;8.562;2023-04-23T08:13:32;393.02;;;378.50;;
62332;SDS011;48624;49.812;8.562;2023-04-23T08:15:57;360.10;;;347.45;;
62332;SDS011;48624;49.812;8.562;2023-04-23T08:18:23;377.77;;;363.90;;
62332;SDS011;48624;49.812;8.562;2023-04-23T08:20:48;382.23;;;367.10;;
62332;SDS011;48624;49.812;8.562;2023-04-23T08:23:14;356.27;;;343.73;;
62332;SDS011;48624;49.812;8.562;2023-04-23T08:25:39;433.05;;;416.10;;
62332;SDS011;48624;49.812;8.562;2023-04-23T08:28:05;348.85;;;336.20;;
62332;SDS011;48624;49.812;8.562;2023-04-23T08:30:30;405.10;;;385.88;;
62332;SDS011;48624;49.812;8.562;2023-04-23T08:32:56;382.20;;;368.10;;
62332;SDS011;48624;49.812;8.562;2023-04-23T08:35:21;350.60;;;337.52;;
62332;SDS011;48624;49.812;8.562;2023-04-23T08:37:47;309.02;;;298.27;;
62332;SDS011;48624;49.812;8.562;2023-04-23T08:40:13;243.10;;;234.77;;
62332;SDS011;48624;49.812;8.562;2023-04-23T08:42:48;298.45;;;286.88;;
62332;SDS011;48624;49.812;8.562;2023-04-23T08:45:16;375.25;;;357.83;;
62332;SDS011;48624;49.812;8.562;2023-04-23T08:47:42;249.88;;;240.88;;
62332;SDS011;48624;49.812;8.562;2023-04-23T08:50:09;184.05;;;177.68;;
62332;SDS011;48624;49.812;8.562;2023-04-23T08:52:37;212.77;;;205.55;;
62332;SDS011;48624;49.812;8.562;2023-04-23T08:55:07;208.60;;;201.30;;
62332;SDS011;48624;49.812;8.562;2023-04-23T08:57:38;180.48;;;174.23;;
62332;SDS011;48624;49.812;8.562;2023-04-23T09:00:09;219.65;;;211.52;;
62332;SDS011;48624;49.812;8.562;2023-04-23T09:02:36;198.35;;;190.05;;
62332;SDS011;48624;49.812;8.562;2023-04-23T09:05:03;112.50;;;108.47;;
62332;SDS011;48624;49.812;8.562;2023-04-23T09:07:29;123.43;;;119.18;;
62332;SDS011;48624;49.812;8.562;2023-04-23T09:09:54;167.23;;;161.68;;
62332;SDS011;48624;49.812;8.562;2023-04-23T09:12:20;164.20;;;158.40;;
62332;SDS011;48624;49.812;8.562;2023-04-23T09:14:47;124.75;;;120.38;;
62332;SDS011;48624;49.812;8.562;2023-04-23T09:17:14;48.80;;;46.90;;
62332;SDS011;48624;49.812;8.562;2023-04-23T09:19:40;126.38;;;121.65;;
62332;SDS011;48624;49.812;8.562;2023-04-23T09:22:10;72.80;;;70.30;;
62332;SDS011;48624;49.812;8.562;2023-04-23T09:24:36;131.77;;;127.30;;
62332;SDS011;48624;49.812;8.562;2023-04-23T09:27:01;89.80;;;86.75;;
62332;SDS011;48624;49.812;8.562;2023-04-23T09:29:27;37.65;;;36.10;;
62332;SDS011;48624;49.812;8.562;2023-04-23T09:32:07;70.07;;;67.43;;
62332;SDS011;48624;49.812;8.562;2023-04-23T09:34:34;32.15;;;30.92;;
62332;SDS011;48624;49.812;8.562;2023-04-23T09:37:03;35.08;;;33.80;;
62332;SDS011;48624;49.812;8.562;2023-04-23T09:39:31;72.40;;;69.88;;
62332;SDS011;48624;49.812;8.562;2023-04-23T09:42:01;50.67;;;48.28;;
62332;SDS011;48624;49.812;8.562;2023-04-23T09:44:32;59.65;;;57.63;;
62332;SDS011;48624;49.812;8.562;2023-04-23T09:47:06;96.43;;;93.22;;
62332;SDS011;48624;49.812;8.562;2023-04-23T09:49:43;42.05;;;40.33;;
62332;SDS011;48624;49.812;8.562;2023-04-23T09:52:10;230.13;;;218.00;;
62332;SDS011;48624;49.812;8.562;2023-04-23T09:54:35;91.28;;;87.65;;
62332;SDS011;48624;49.812;8.562;2023-04-23T09:57:00;37.20;;;35.85;;
62332;SDS011;48624;49.812;8.562;2023-04-23T09:59:27;32.72;;;31.52;;
62332;SDS011;48624;49.812;8.562;2023-04-23T10:01:53;19.50;;;18.75;;
62332;SDS011;48624;49.812;8.562;2023-04-23T10:04:23;53.85;;;51.78;;
62332;SDS011;48624;49.812;8.562;2023-04-23T10:06:55;17.83;;;17.02;;
62332;SDS011;48624;49.812;8.562;2023-04-23T10:09:22;16.85;;;16.05;;
62332;SDS011;48624;49.812;8.562;2023-04-23T10:11:52;17.13;;;16.42;;
62332;SDS011;48624;49.812;8.562;2023-04-23T10:14:23;18.02;;;17.13;;
62332;SDS011;48624;49.812;8.562;2023-04-23T10:16:50;22.35;;;21.35;;
62332;SDS011;48624;49.812;8.562;2023-04-23T10:19:21;24.17;;;23.27;;
62332;SDS011;48624;49.812;8.562;2023-04-23T10:21:58;6.72;;;6.32;;
62332;SDS011;48624;49.812;8.562;2023-04-23T10:24:28;42.78;;;40.88;;
62332;SDS011;48624;49.812;8.562;2023-04-23T10:27:04;16.27;;;15.55;;
62332;SDS011;48624;49.812;8.562;2023-04-23T10:32:01;6.47;;;5.97;;
62332;SDS011;48624;49.812;8.562;2023-04-23T10:34:29;10.55;;;9.90;;
62332;SDS011;48624;49.812;8.562;2023-04-23T10:36:55;20.50;;;19.60;;
62332;SDS011;48624;49.812;8.562;2023-04-23T10:39:24;22.15;;;20.98;;
62332;SDS011;48624;49.812;8.562;2023-04-23T10:41:54;21.95;;;20.98;;
62332;SDS011;48624;49.812;8.562;2023-04-23T10:44:20;32.75;;;31.40;;
62332;SDS011;48624;49.812;8.562;2023-04-23T10:46:52;16.02;;;15.10;;
62332;SDS011;48624;49.812;8.562;2023-04-23T10:49:22;13.07;;;12.38;;
62332;SDS011;48624;49.812;8.562;2023-04-23T10:51:56;13.80;;;13.20;;
62332;SDS011;48624;49.812;8.562;2023-04-23T10:54:30;5.05;;;4.60;;
62332;SDS011;48624;49.812;8.562;2023-04-23T10:56:57;10.45;;;9.95;;
62332;SDS011;48624;49.812;8.562;2023-04-23T10:59:30;5.75;;;5.35;;
62332;SDS011;48624;49.812;8.562;2023-04-23T11:01:57;3.75;;;3.45;;
62332;SDS011;48624;49.812;8.562;2023-04-23T11:04:33;2.95;;;2.20;;
62332;SDS011;48624;49.812;8.562;2023-04-23T11:07:06;3.72;;;2.17;;
62332;SDS011;48624;49.812;8.562;2023-04-23T11:09:42;3.88;;;2.97;;
62332;SDS011;48624;49.812;8.562;2023-04-23T11:14:40;3.42;;;3.13;;
62332;SDS011;48624;49.812;8.562;2023-04-23T11:17:06;6.32;;;3.95;;
62332;SDS011;48624;49.812;8.562;2023-04-23T11:19:35;3.80;;;3.33;;
62332;SDS011;48624;49.812;8.562;2023-04-23T11:22:02;5.75;;;3.97;;
62332;SDS011;48624;49.812;8.562;2023-04-23T11:24:32;4.47;;;4.18;;
62332;SDS011;48624;49.812;8.562;2023-04-23T11:27:07;2.63;;;2.42;;
62332;SDS011;48624;49.812;8.562;2023-04-23T11:29:37;2.67;;;2.00;;
62332;SDS011;48624;49.812;8.562;2023-04-23T11:32:04;3.13;;;2.92;;
62332;SDS011;48624;49.812;8.562;2023-04-23T11:34:34;2.35;;;1.88;;
62332;SDS011;48624;49.812;8.562;2023-04-23T11:37:01;14.60;;;13.65;;
62332;SDS011;48624;49.812;8.562;2023-04-23T11:39:26;3.22;;;3.00;;
62332;SDS011;48624;49.812;8.562;2023-04-23T11:41:52;2.65;;;2.08;;
62332;SDS011;48624;49.812;8.562;2023-04-23T11:44:18;2.53;;;2.33;;
62332;SDS011;48624;49.812;8.562;2023-04-23T11:46:45;4.90;;;4.53;;
62332;SDS011;48624;49.812;8.562;2023-04-23T11:49:14;9.93;;;9.45;;
62332;SDS011;48624;49.812;8.562;2023-04-23T11:51:43;3.75;;;1.90;;
62332;SDS011;48624;49.812;8.562;2023-04-23T11:54:10;2.90;;;1.50;;
62332;SDS011;48624;49.812;8.562;2023-04-23T11:56:37;2.63;;;1.30;;
62332;SDS011;48624;49.812;8.562;2023-04-23T11:59:03;3.72;;;1.55;;
62332;SDS011;48624;49.812;8.562;2023-04-23T12:01:39;2.63;;;1.30;;
62332;SDS011;48624;49.812;8.562;2023-04-23T12:04:19;1.85;;;1.20;;
62332;SDS011;48624;49.812;8.562;2023-04-23T12:06:47;1.90;;;1.30;;
62332;SDS011;48624;49.812;8.562;2023-04-23T12:09:14;1.30;;;1.20;;
62332;SDS011;48624;49.812;8.562;2023-04-23T12:11:41;1.20;;;1.10;;
62332;SDS011;48624;49.812;8.562;2023-04-23T12:14:08;3.75;;;1.55;;
62332;SDS011;48624;49.812;8.562;2023-04-23T12:16:38;1.30;;;1.20;;
62332;SDS011;48624;49.812;8.562;2023-04-23T12:19:07;1.50;;;1.15;;
62332;SDS011;48624;49.812;8.562;2023-04-23T12:21:33;1.17;;;1.08;;
62332;SDS011;48624;49.812;8.562;2023-04-23T12:23:59;1.15;;;1.02;;
62332;SDS011;48624;49.812;8.562;2023-04-23T12:26:27;1.13;;;0.90;;
62332;SDS011;48624;49.812;8.562;2023-04-23T12:28:53;3.58;;;1.35;;
62332;SDS011;48624;49.812;8.562;2023-04-23T12:31:23;2.03;;;1.23;;
62332;SDS011;48624;49.812;8.562;2023-04-23T12:34:04;2.05;;;1.10;;
62332;SDS011;48624;49.812;8.562;2023-04-23T12:36:31;2.10;;;1.10;;
62332;SDS011;48624;49.812;8.562;2023-04-23T12:41:56;1.52;;;1.00;;
62332;SDS011;48624;49.812;8.562;2023-04-23T12:44:25;1.10;;;0.85;;
62332;SDS011;48624;49.812;8.562;2023-04-23T12:46:57;2.47;;;1.15;;
62332;SDS011;48624;49.812;8.562;2023-04-23T12:49:25;1.38;;;1.02;;
62332;SDS011;48624;49.812;8.562;2023-04-23T12:51:51;1.15;;;0.73;;
62332;SDS011;48624;49.812;8.562;2023-04-23T12:54:21;2.95;;;1.05;;
62332;SDS011;48624;49.812;8.562;2023-04-23T12:56:48;1.02;;;0.90;;
62332;SDS011;48624;49.812;8.562;2023-04-23T12:59:13;1.95;;;0.70;;
62332;SDS011;48624;49.812;8.562;2023-04-23T13:01:38;2.35;;;0.85;;
62332;SDS011;48624;49.812;8.562;2023-04-23T13:04:04;0.82;;;0.75;;
62332;SDS011;48624;49.812;8.562;2023-04-23T13:06:30;1.95;;;1.20;;
62332;SDS011;48624;49.812;8.562;2023-04-23T13:08:55;0.93;;;0.50;;
62332;SDS011;48624;49.812;8.562;2023-04-23T13:11:21;1.33;;;0.88;;
62332;SDS011;48624;49.812;8.562;2023-04-23T13:13:46;1.98;;;1.00;;
62332;SDS011;48624;49.812;8.562;2023-04-23T13:16:12;1.08;;;0.80;;
62332;SDS011;48624;49.812;8.562;2023-04-23T13:18:37;1.63;;;1.10;;
62332;SDS011;48624;49.812;8.562;2023-04-23T13:21:03;1.20;;;0.80;;
62332;SDS011;48624;49.812;8.562;2023-04-23T13:23:28;1.13;;;0.80;;
62332;SDS011;48624;49.812;8.562;2023-04-23T13:25:53;1.77;;;1.10;;
62332;SDS011;48624;49.812;8.562;2023-04-23T13:28:19;3.17;;;0.93;;
62332;SDS011;48624;49.812;8.562;2023-04-23T13:30:44;1.30;;;1.10;;
62332;SDS011;48624;49.812;8.562;2023-04-23T13:33:10;2.78;;;1.20;;
62332;SDS011;48624;49.812;8.562;2023-04-23T13:35:35;1.92;;;1.00;;
62332;SDS011;48624;49.812;8.562;2023-04-23T13:38:01;1.77;;;0.90;;
62332;SDS011;48624;49.812;8.562;2023-04-23T13:40:27;1.02;;;0.80;;
62332;SDS011;48624;49.812;8.562;2023-04-23T13:42:53;1.55;;;1.10;;
62332;SDS011;48624;49.812;8.562;2023-04-23T13:45:19;1.83;;;0.82;;
62332;SDS011;48624;49.812;8.562;2023-04-23T13:47:44;1.02;;;0.80;;
62332;SDS011;48624;49.812;8.562;2023-04-23T13:50:10;1.73;;;1.05;;
62332;SDS011;48624;49.812;8.562;2023-04-23T13:52:35;1.90;;;1.05;;
62332;SDS011;48624;49.812;8.562;2023-04-23T13:55:03;1.95;;;0.77;;
62332;SDS011;48624;49.812;8.562;2023-04-23T13:57:29;1.25;;;0.98;;
62332;SDS011;48624;49.812;8.562;2023-04-23T13:59:54;1.85;;;0.70;;
62332;SDS011;48624;49.812;8.562;2023-04-23T14:02:20;1.08;;;1.00;;
62332;SDS011;48624;49.812;8.562;2023-04-23T14:04:46;1.50;;;1.40;;
62332;SDS011;48624;49.812;8.562;2023-04-23T14:07:12;3.88;;;3.67;;
62332;SDS011;48624;49.812;8.562;2023-04-23T14:09:37;5.20;;;4.90;;
62332;SDS011;48624;49.812;8.562;2023-04-23T14:12:03;22.05;;;21.25;;
62332;SDS011;48624;49.812;8.562;2023-04-23T14:14:29;52.97;;;51.20;;